Time;durP1;ratioP1;P1;durP2;ratioP2;P2;SDS_P1;SDS_P2;PMS_P1;PMS_P2;Temp;Humidity;BMP_temperature;BMP_pressure;BME280_temperature;BME280_humidity;BME280_pressure;Samples;Min_cycle;Max_cycle;Signal;HPM_P1;HPM_P2
2021/03/09 00:02:17;;;;;;;28.75;10.80;;;;;;;-2.38;58.27;100737.63;147377;1147;105024;-78
2021/03/09 00:05:21;;;;;;;33.45;12.73;;;;;;;-2.35;57.93;100736.64;147732;1147;104463;-74
2021/03/09 00:08:24;;;;;;;28.30;11.65;;;;;;;-2.36;57.07;100740.19;147802;1148;104452;-73
2021/03/09 00:11:28;;;;;;;34.78;11.57;;;;;;;-2.38;57.54;100735.02;147735;1147;104490;-75
2021/03/09 00:14:31;;;;;;;36.45;14.18;;;;;;;-2.38;56.98;100742.86;147764;1147;104613;-74
2021/03/09 00:17:34;;;;;;;59.23;22.00;;;;;;;-2.40;57.13;100736.84;147813;1147;104524;-81
2021/03/09 00:20:38;;;;;;;76.13;24.23;;;;;;;-2.41;57.64;100737.73;147737;1146;104542;-81
2021/03/09 00:23:41;;;;;;;53.83;19.30;;;;;;;-2.40;57.56;100744.67;147751;1146;104535;-78
2021/03/09 00:26:44;;;;;;;40.03;15.93;;;;;;;-2.45;57.60;100743.98;147510;1147;104558;-79
2021/03/09 00:29:48;;;;;;;38.17;15.25;;;;;;;-2.48;56.91;100744.12;147792;1148;104561;-77
2021/03/09 00:32:51;;;;;;;30.02;10.25;;;;;;;-2.53;57.99;100737.37;147823;1147;104470;-79
2021/03/09 00:35:54;;;;;;;25.48;9.73;;;;;;;-2.54;57.43;100746.10;147783;1147;104435;-79
2021/03/09 00:38:57;;;;;;;30.05;11.45;;;;;;;-2.56;58.30;100746.15;147625;1147;104476;-78
2021/03/09 00:42:01;;;;;;;25.77;10.70;;;;;;;-2.58;57.60;100750.58;147784;1147;104581;-80
2021/03/09 00:45:06;;;;;;;23.35;9.23;;;;;;;-2.59;58.09;100756.73;147725;1147;104582;-78
2021/03/09 00:48:10;;;;;;;22.17;9.08;;;;;;;-2.63;57.53;100752.53;147967;1148;104495;-79
2021/03/09 00:51:13;;;;;;;18.85;7.65;;;;;;;-2.65;57.59;100749.13;147822;1147;104457;-76
2021/03/09 00:54:17;;;;;;;19.92;9.05;;;;;;;-2.68;57.71;100754.45;147762;1147;104477;-78
2021/03/09 00:57:20;;;;;;;19.07;8.50;;;;;;;-2.73;57.58;100751.15;147752;1147;104490;-78
2021/03/09 01:00:25;;;;;;;19.73;8.00;;;;;;;-2.77;57.42;100747.83;147746;1147;104584;-82
2021/03/09 01:03:28;;;;;;;17.10;7.67;;;;;;;-2.85;57.53;100745.49;147435;1147;104509;-78
2021/03/09 01:06:31;;;;;;;20.27;8.63;;;;;;;-2.95;57.03;100749.32;147761;1147;104546;-80
2021/03/09 01:09:34;;;;;;;19.35;7.97;;;;;;;-2.93;57.94;100749.27;147774;1147;104435;-76
2021/03/09 01:12:38;;;;;;;23.57;7.87;;;;;;;-2.92;57.64;100741.39;147784;1147;104456;-77
2021/03/09 01:15:41;;;;;;;18.30;8.23;;;;;;;-2.94;57.02;100737.98;147812;1147;104583;-75
2021/03/09 01:18:44;;;;;;;20.97;8.73;;;;;;;-2.96;58.00;100739.80;147795;1146;104546;-77
2021/03/09 01:21:48;;;;;;;17.98;7.75;;;;;;;-2.99;57.50;100735.52;147715;1146;104552;-76
2021/03/09 01:24:51;;;;;;;20.75;9.48;;;;;;;-2.97;57.69;100730.25;147616;1147;104457;-76
2021/03/09 01:27:54;;;;;;;19.90;9.53;;;;;;;-2.97;57.74;100730.25;147803;1146;104793;-81
2021/03/09 01:30:58;;;;;;;21.20;9.08;;;;;;;-3.00;57.65;100726.00;147630;1147;104585;-78
2021/03/09 01:34:01;;;;;;;18.70;8.68;;;;;;;-2.99;57.52;100719.02;147402;1146;104611;-76
2021/03/09 01:37:05;;;;;;;17.27;7.35;;;;;;;-2.96;57.36;100729.36;147477;1146;104547;-76
2021/03/09 01:40:12;;;;;;;17.65;8.28;;;;;;;-2.94;57.62;100732.77;147409;1146;104927;-76
2021/03/09 01:43:17;;;;;;;18.13;7.70;;;;;;;-2.92;58.00;100723.11;147778;1148;104544;-77
2021/03/09 01:46:21;;;;;;;18.12;6.87;;;;;;;-2.91;57.36;100724.80;147680;1146;104461;-75
2021/03/09 01:49:25;;;;;;;18.17;7.85;;;;;;;-2.90;57.87;100730.90;147774;1148;104547;-77
2021/03/09 01:52:29;;;;;;;17.37;7.83;;;;;;;-2.89;57.26;100728.20;147781;1148;104472;-76
2021/03/09 01:55:32;;;;;;;19.73;7.33;;;;;;;-2.86;57.59;100730.72;147775;1146;104432;-74
2021/03/09 01:58:39;;;;;;;15.95;6.80;;;;;;;-2.84;57.57;100723.67;147804;1146;104447;-75
2021/03/09 02:01:43;;;;;;;20.88;8.43;;;;;;;-2.81;58.20;100725.31;147745;1147;104591;-77
2021/03/09 02:04:46;;;;;;;20.55;8.40;;;;;;;-2.87;57.43;100723.77;147795;1147;104483;-78
2021/03/09 02:07:49;;;;;;;18.32;8.05;;;;;;;-2.89;57.98;100717.76;147755;1147;104585;-75
2021/03/09 02:10:53;;;;;;;18.80;8.18;;;;;;;-2.84;58.29;100710.62;147784;1147;104472;-76
2021/03/09 02:14:04;;;;;;;19.25;9.03;;;;;;;-2.79;57.95;100719.14;147755;1146;104601;-77
2021/03/09 02:17:16;;;;;;;18.50;9.05;;;;;;;-2.74;57.31;100726.80;147768;1147;104554;-77
2021/03/09 02:21:00;;;;;;;16.30;7.03;;;;;;;-2.77;57.81;100716.48;147542;1147;104536;-78
2021/03/09 02:24:29;;;;;;;14.93;6.37;;;;;;;-2.73;57.42;100720.68;147264;1147;104650;-77
2021/03/09 02:27:48;;;;;;;16.23;7.35;;;;;;;-2.70;58.08;100720.55;147771;1147;104489;-78
2021/03/09 02:30:54;;;;;;;17.10;7.67;;;;;;;-2.67;56.90;100727.44;147800;1147;104549;-77
2021/03/09 02:34:06;;;;;;;18.67;7.23;;;;;;;-2.68;58.26;100720.50;147794;1147;104575;-76
2021/03/09 02:37:12;;;;;;;17.27;7.50;;;;;;;-2.67;57.83;100727.44;147797;1148;104635;-79
2021/03/09 02:40:17;;;;;;;16.42;7.58;;;;;;;-2.64;58.32;100727.30;147788;1147;104499;-76
2021/03/09 02:43:22;;;;;;;15.83;6.85;;;;;;;-2.63;56.93;100731.64;147425;1146;104525;-78
2021/03/09 02:46:27;;;;;;;15.75;7.25;;;;;;;-2.64;57.67;100730.77;147473;1147;104544;-74
2021/03/09 02:49:34;;;;;;;14.83;7.08;;;;;;;-2.59;56.89;100738.45;147660;1147;104563;-76
2021/03/09 02:52:40;;;;;;;19.83;8.30;;;;;;;-2.56;57.56;100733.09;147666;1148;104461;-80
2021/03/09 02:55:46;;;;;;;15.78;8.25;;;;;;;-2.55;56.99;100734.80;147566;1147;104546;-78
2021/03/09 02:58:52;;;;;;;16.55;6.85;;;;;;;-2.56;57.26;100738.31;147665;1147;104539;-78
2021/03/09 03:01:56;;;;;;;19.73;8.10;;;;;;;-2.59;57.36;100733.22;147773;1147;104545;-77
2021/03/09 03:05:00;;;;;;;16.45;7.47;;;;;;;-2.62;57.48;100734.20;147759;1147;104496;-78
2021/03/09 03:08:05;;;;;;;16.87;7.58;;;;;;;-2.74;57.96;100741.63;147807;1147;104598;-81
2021/03/09 03:11:10;;;;;;;15.32;7.00;;;;;;;-2.76;58.23;100737.30;147876;1146;104454;-79
2021/03/09 03:14:14;;;;;;;16.12;7.70;;;;;;;-2.74;58.04;100739.02;147721;1147;104527;-79
2021/03/09 03:17:18;;;;;;;17.83;7.87;;;;;;;-2.80;57.76;100732.26;147782;1146;104547;-79
2021/03/09 03:20:23;;;;;;;16.77;7.15;;;;;;;-2.83;57.10;100732.35;147730;1147;104633;-80
2021/03/09 03:23:28;;;;;;;14.50;7.40;;;;;;;-2.83;57.39;100734.97;147503;1146;104503;-80
2021/03/09 03:26:33;;;;;;;17.65;7.80;;;;;;;-2.89;57.09;100741.27;147843;1147;104562;-79
2021/03/09 03:29:36;;;;;;;16.15;7.15;;;;;;;-2.93;57.31;100737.06;147639;1147;104492;-81
2021/03/09 03:32:40;;;;;;;16.20;7.35;;;;;;;-2.91;57.51;100740.47;147821;1147;104623;-81
2021/03/09 03:35:45;;;;;;;15.80;7.20;;;;;;;-2.90;57.61;100738.73;147915;1147;104547;-81
2021/03/09 03:38:49;;;;;;;15.03;7.08;;;;;;;-2.88;57.52;100727.31;147724;1147;104447;-82
2021/03/09 03:41:53;;;;;;;15.43;6.60;;;;;;;-2.90;57.08;100734.35;147879;1146;104444;-83
2021/03/09 03:44:56;;;;;;;17.85;7.62;;;;;;;-2.95;56.86;100736.27;147825;1147;104542;-80
2021/03/09 03:48:00;;;;;;;16.33;7.33;;;;;;;-2.96;57.96;100742.41;147814;1146;104454;-80
2021/03/09 03:51:07;;;;;;;17.63;7.67;;;;;;;-2.99;57.01;100739.90;147737;1147;104998;-72
2021/03/09 03:54:24;;;;;;;13.68;6.87;;;;;;;-3.01;57.05;100736.49;147819;1147;104455;-77
2021/03/09 03:57:37;;;;;;;16.40;7.37;;;;;;;-3.00;57.28;100730.38;147803;1147;104576;-74
2021/03/09 04:00:41;;;;;;;19.70;7.90;;;;;;;-3.06;57.31;100733.19;147746;1147;104460;-74
2021/03/09 04:03:46;;;;;;;15.98;7.15;;;;;;;-3.05;56.92;100730.52;147737;1147;104546;-75
2021/03/09 04:06:53;;;;;;;20.23;7.08;;;;;;;-3.03;57.45;100730.47;147522;1147;104546;-75
2021/03/09 04:09:57;;;;;;;18.50;8.03;;;;;;;-3.06;57.93;100731.45;147595;1147;104950;-75
2021/03/09 04:13:01;;;;;;;19.32;7.78;;;;;;;-3.07;57.24;100739.33;147882;1146;104580;-73
2021/03/09 04:16:06;;;;;;;16.23;7.73;;;;;;;-3.04;57.37;100736.59;151794;1153;103124;-73
2021/03/09 04:19:12;;;;;;;17.77;7.23;;;;;;;-2.98;57.49;100736.39;149738;1147;104451;-76
2021/03/09 04:22:18;;;;;;;17.50;7.67;;;;;;;-2.95;58.16;100736.27;147909;1148;104490;-76
2021/03/09 04:25:22;;;;;;;15.40;6.80;;;;;;;-2.87;57.20;100733.38;147864;1147;104482;-76
2021/03/09 04:28:25;;;;;;;29.02;11.25;;;;;;;-2.81;57.88;100727.92;147803;1147;104545;-75
2021/03/09 04:31:30;;;;;;;20.37;9.33;;;;;;;-2.74;57.90;100732.02;147783;1148;104489;-76
2021/03/09 04:34:33;;;;;;;19.75;8.90;;;;;;;-2.68;57.80;100733.56;147834;1146;104596;-74
2021/03/09 04:37:37;;;;;;;18.32;8.68;;;;;;;-2.61;57.90;100732.43;147753;1147;104498;-75
2021/03/09 04:40:43;;;;;;;28.23;12.03;;;;;;;-2.55;58.02;100734.80;147750;1148;104461;-75
2021/03/09 04:43:46;;;;;;;30.73;12.60;;;;;;;-2.48;58.22;100733.67;147393;1146;104455;-76
2021/03/09 04:46:50;;;;;;;18.65;8.83;;;;;;;-2.43;57.92;100736.94;147366;1148;104588;-76
2021/03/09 04:49:56;;;;;;;40.67;14.40;;;;;;;-2.42;57.70;100736.05;147381;1147;104547;-77
2021/03/09 04:53:00;;;;;;;23.10;8.98;;;;;;;-2.37;57.56;100731.51;147772;1145;104551;-77
2021/03/09 04:56:04;;;;;;;21.77;9.53;;;;;;;-2.30;57.80;100736.48;147809;1147;104549;-78
2021/03/09 04:59:08;;;;;;;21.45;9.30;;;;;;;-2.25;59.05;100738.02;147790;1147;104538;-74
2021/03/09 05:02:11;;;;;;;17.20;8.15;;;;;;;-2.19;58.88;100739.55;147786;1147;104477;-76
2021/03/09 05:05:19;;;;;;;20.80;9.33;;;;;;;-2.13;57.78;100744.53;147748;1147;104547;-76
2021/03/09 05:08:23;;;;;;;22.90;9.53;;;;;;;-2.10;58.38;100738.31;147794;1148;104547;-76
2021/03/09 05:11:28;;;;;;;22.62;8.73;;;;;;;-2.06;58.77;100748.61;147494;1147;104555;-77
2021/03/09 05:14:33;;;;;;;22.63;9.97;;;;;;;-2.01;58.80;100749.27;147482;1147;104430;-77
2021/03/09 05:17:36;;;;;;;23.57;10.58;;;;;;;-1.95;58.25;100747.33;147438;1148;104589;-77
2021/03/09 05:20:40;;;;;;;19.57;8.85;;;;;;;-1.91;58.01;100748.90;147612;1148;104535;-78
2021/03/09 05:23:44;;;;;;;22.73;9.98;;;;;;;-1.81;59.05;100744.99;147829;1147;104522;-77
2021/03/09 05:26:47;;;;;;;22.32;9.70;;;;;;;-1.76;58.44;100742.20;147778;1146;104565;-77
2021/03/09 05:29:50;;;;;;;20.32;9.20;;;;;;;-1.79;59.07;100744.03;147375;1146;104445;-77
2021/03/09 05:32:56;;;;;;;19.00;8.95;;;;;;;-1.71;58.69;100748.08;147662;1148;104485;-75
2021/03/09 05:35:59;;;;;;;21.13;9.40;;;;;;;-1.67;59.39;100749.69;147584;1146;104537;-75
2021/03/09 05:39:03;;;;;;;24.82;9.90;;;;;;;-1.63;59.59;100752.10;147396;1146;104540;-76
2021/03/09 05:42:08;;;;;;;19.15;8.63;;;;;;;-1.57;59.46;100756.23;147745;1147;104572;-73
2021/03/09 05:45:13;;;;;;;21.75;9.75;;;;;;;-1.55;59.12;100753.56;147774;1147;104543;-77
2021/03/09 05:48:16;;;;;;;39.70;16.83;;;;;;;-1.51;59.16;100760.36;147761;1147;104481;-74
2021/03/09 05:51:20;;;;;;;37.93;16.67;;;;;;;-1.44;59.21;100759.20;147775;1147;104473;-75
2021/03/09 05:54:23;;;;;;;37.00;15.93;;;;;;;-1.35;59.08;100753.55;147470;1146;104470;-76
2021/03/09 05:57:27;;;;;;;41.13;17.93;;;;;;;-1.29;59.26;100758.56;147763;1147;104480;-77
2021/03/09 06:00:31;;;;;;;36.37;16.73;;;;;;;-1.15;58.95;100754.50;147809;1147;104561;-77
2021/03/09 06:03:34;;;;;;;61.55;20.30;;;;;;;-1.10;58.51;100752.52;147749;1146;104455;-75
2021/03/09 06:06:37;;;;;;;75.40;25.60;;;;;;;-1.08;58.50;100758.53;147746;1147;104591;-70
2021/03/09 06:09:42;;;;;;;78.87;29.40;;;;;;;-1.03;59.44;100761.81;147512;1147;104625;-72
2021/03/09 06:12:46;;;;;;;67.82;23.30;;;;;;;-0.97;58.89;100766.78;147757;1147;104543;-71
2021/03/09 06:15:54;;;;;;;55.40;20.50;;;;;;;-0.88;60.04;100766.39;147688;1147;104919;-71
2021/03/09 06:18:58;;;;;;;50.03;18.82;;;;;;;-0.72;60.04;100773.57;147621;1147;104489;-71
2021/03/09 06:22:02;;;;;;;31.57;14.28;;;;;;;-0.61;60.51;100776.56;147592;1147;104460;-75
2021/03/09 06:25:07;;;;;;;38.15;17.90;;;;;;;-0.53;59.74;100777.06;147578;1146;104614;-73
2021/03/09 06:28:11;;;;;;;48.80;22.17;;;;;;;-0.41;60.06;100786.14;147690;1146;104575;-73
2021/03/09 06:31:14;;;;;;;85.57;32.28;;;;;;;-0.30;60.12;100790.91;147760;1147;104534;-71
2021/03/09 06:34:25;;;;;;;339.80;96.53;;;;;;;-0.19;60.20;100791.27;147700;1147;104444;-73
2021/03/09 06:37:29;;;;;;;90.62;31.30;;;;;;;-0.07;60.07;100792.46;147784;1147;104945;-73
2021/03/09 06:40:32;;;;;;;37.95;18.90;;;;;;;0.07;59.86;100802.30;147732;1147;104605;-76
2021/03/09 06:43:37;;;;;;;25.97;13.35;;;;;;;0.17;60.32;100800.93;147730;1147;104543;-79
2021/03/09 06:46:47;;;;;;;26.17;13.15;;;;;;;0.28;60.16;100811.77;147299;1148;104468;-73
2021/03/09 06:49:52;;;;;;;29.75;13.90;;;;;;;0.35;60.10;100812.34;147755;1147;104944;-74
2021/03/09 06:53:01;;;;;;;21.20;10.65;;;;;;;0.45;60.10;100812.75;147822;1147;104460;-76
2021/03/09 06:56:26;;;;;;;23.05;12.25;;;;;;;0.54;60.25;100807.02;147818;1147;104553;-74
2021/03/09 06:59:31;;;;;;;22.60;11.03;;;;;;;0.61;59.99;100802.33;148020;1147;104571;-73
2021/03/09 07:02:34;;;;;;;29.13;14.83;;;;;;;0.68;60.11;100807.20;147902;1146;104449;-75
2021/03/09 07:05:56;;;;;;;85.60;37.42;;;;;;;0.76;60.41;100809.45;147734;1147;104506;-76
2021/03/09 07:09:10;;;;;;;122.80;50.63;;;;;;;0.86;60.60;100812.47;147796;1147;104568;-72
2021/03/09 07:12:15;;;;;;;71.17;34.40;;;;;;;0.95;60.41;100812.00;147789;1145;104572;-72
2021/03/09 07:15:21;;;;;;;291.45;129.95;;;;;;;1.01;60.57;100819.57;147601;1146;104549;-72
2021/03/09 07:18:26;;;;;;;192.92;90.67;;;;;;;1.11;60.03;100818.16;147493;1147;104457;-71
2021/03/09 07:21:32;;;;;;;172.03;81.10;;;;;;;1.17;60.50;100823.13;147564;1147;104554;-71
2021/03/09 07:24:46;;;;;;;93.67;46.35;;;;;;;1.28;60.12;100813.83;147694;1146;104597;-80
2021/03/09 07:27:58;;;;;;;47.10;22.80;;;;;;;1.42;60.31;100821.83;147571;1147;104473;-71
2021/03/09 07:31:04;;;;;;;97.60;52.37;;;;;;;1.53;60.18;100818.65;147787;1145;104534;-74
2021/03/09 07:34:08;;;;;;;53.77;26.40;;;;;;;1.63;59.73;100814.59;147602;1148;104502;-72
2021/03/09 07:37:12;;;;;;;63.20;31.97;;;;;;;1.72;60.00;100810.63;147784;1147;104472;-71
2021/03/09 07:40:17;;;;;;;60.08;31.77;;;;;;;1.79;59.84;100819.90;147787;1147;104541;-71
2021/03/09 07:43:21;;;;;;;78.47;42.35;;;;;;;1.88;60.28;100819.38;147760;1146;104620;-72
2021/03/09 07:46:25;;;;;;;42.83;22.20;;;;;;;1.95;59.04;100818.11;147878;1147;104506;-76
2021/03/09 07:49:29;;;;;;;52.23;27.73;;;;;;;1.97;59.05;100825.94;147804;1147;104517;-73
2021/03/09 07:52:32;;;;;;;52.30;25.50;;;;;;;2.05;59.29;100814.98;147800;1147;104448;-73
2021/03/09 07:55:37;;;;;;;30.53;15.20;;;;;;;2.11;59.43;100818.11;147770;1147;104466;-77
2021/03/09 07:58:42;;;;;;;28.92;14.45;;;;;;;2.19;59.50;100817.69;147856;1147;104953;-73
2021/03/09 08:01:48;;;;;;;28.87;16.15;;;;;;;2.25;59.00;100819.13;147786;1147;104562;-75
2021/03/09 08:04:58;;;;;;;26.40;14.50;;;;;;;2.31;59.34;100826.68;147651;1147;104545;-73
2021/03/09 08:08:03;;;;;;;28.75;15.30;;;;;;;2.34;59.24;100822.09;147689;1147;104550;-74
2021/03/09 08:11:07;;;;;;;19.07;9.58;;;;;;;2.41;58.99;100821.77;147917;1147;104468;-76
2021/03/09 08:14:24;;;;;;;23.40;12.37;;;;;;;2.48;59.52;100823.09;147807;1147;104892;-73
2021/03/09 08:17:28;;;;;;;22.15;10.90;;;;;;;2.64;58.86;100820.46;147864;1146;104527;-71
2021/03/09 08:20:51;;;;;;;22.05;11.18;;;;;;;2.75;59.21;100820.66;147785;1146;104544;-74
2021/03/09 08:23:56;;;;;;;21.50;10.60;;;;;;;2.88;58.81;100818.17;147776;1146;104502;-77
2021/03/09 08:26:59;;;;;;;22.67;10.17;;;;;;;2.96;57.56;100818.56;147792;1146;104522;-73
2021/03/09 08:30:25;;;;;;;23.63;12.37;;;;;;;3.04;57.77;100811.08;147684;1147;104640;-76
2021/03/09 08:33:28;;;;;;;14.87;8.00;;;;;;;3.09;58.12;100803.72;147866;1147;104492;-76
2021/03/09 08:36:34;;;;;;;695.60;313.02;;;;;;;3.10;58.51;100805.43;147796;1147;104660;-76
2021/03/09 08:39:37;;;;;;;875.35;375.95;;;;;;;3.10;57.59;100805.43;147804;1147;104553;-76
2021/03/09 08:43:14;;;;;;;147.00;51.23;;;;;;;3.09;57.44;100798.44;147858;1147;104489;-80
2021/03/09 08:46:17;;;;;;;593.10;360.88;;;;;;;3.04;57.77;100800.53;147732;1146;104564;-75
2021/03/09 08:49:44;;;;;;;859.17;563.80;;;;;;;2.95;56.82;100807.18;147753;1147;104547;-80
2021/03/09 08:52:48;;;;;;;113.37;53.42;;;;;;;2.85;57.75;100813.06;147693;1146;104825;-79
2021/03/09 08:55:56;;;;;;;56.68;27.40;;;;;;;2.78;57.91;100809.12;148765;1146;104473;-83
2021/03/09 08:58:59;;;;;;;279.35;147.40;;;;;;;2.73;58.08;100807.60;148088;1146;104470;-77
2021/03/09 09:02:11;;;;;;;96.72;49.63;;;;;;;2.74;57.76;100809.28;148102;1147;104588;-80
2021/03/09 09:05:15;;;;;;;;;;;;;;;2.80;57.00;100801.97;147927;1147;104530;-77
2021/03/09 09:08:21;;;;;;;30.32;16.70;;;;;;;2.80;56.76;100802.81;147638;1147;104492;-80
2021/03/09 09:11:28;;;;;;;33.33;22.98;;;;;;;2.81;56.68;100804.52;147687;1147;104475;-86
2021/03/09 09:14:32;;;;;;;14.93;9.43;;;;;;;2.84;56.17;100798.20;147857;1147;104456;-81
2021/03/09 09:17:36;;;;;;;25.83;17.43;;;;;;;2.78;57.16;100803.84;147590;1148;104571;-79
2021/03/09 09:20:43;;;;;;;16.90;9.10;;;;;;;2.78;55.54;100799.41;147682;1148;104529;-76
2021/03/09 09:23:47;;;;;;;16.65;9.38;;;;;;;2.74;56.29;100795.27;147554;1147;104477;-77
2021/03/09 09:27:03;;;;;;;9.55;5.08;;;;;;;2.70;54.46;100780.58;147643;1147;104447;-80
2021/03/09 09:30:10;;;;;;;65.28;42.43;;;;;;;2.65;55.50;100788.73;147603;1148;104496;-79
2021/03/09 09:33:14;;;;;;;15.75;10.23;;;;;;;2.69;55.83;100784.13;147859;1147;104605;-79
2021/03/09 09:36:18;;;;;;;8.98;4.55;;;;;;;2.70;55.69;100786.69;147746;1148;104564;-79
2021/03/09 09:39:34;;;;;;;8.40;4.03;;;;;;;2.69;53.35;100784.97;147856;1147;104528;-80
2021/03/09 09:42:37;;;;;;;9.17;4.27;;;;;;;2.68;55.45;100780.66;148121;1147;104495;-79
2021/03/09 09:45:43;;;;;;;7.70;3.47;;;;;;;2.69;54.80;100790.24;147909;1147;104456;-79
2021/03/09 09:48:46;;;;;;;8.83;4.20;;;;;;;2.69;54.80;100790.24;147854;1147;104553;-79
2021/03/09 09:51:49;;;;;;;7.50;3.27;;;;;;;2.75;53.39;100787.28;147846;1148;104812;-80
2021/03/09 09:54:54;;;;;;;6.85;3.25;;;;;;;2.83;54.79;100785.95;147581;1147;104454;-78
2021/03/09 09:57:59;;;;;;;7.50;4.30;;;;;;;2.89;53.62;100788.25;148732;1146;104547;-78
2021/03/09 10:01:03;;;;;;;9.48;4.08;;;;;;;2.91;53.01;100791.64;147990;1147;104447;-77
2021/03/09 10:04:08;;;;;;;8.10;4.40;;;;;;;2.92;52.74;100783.63;148093;1146;104608;-80
2021/03/09 10:07:20;;;;;;;11.85;5.08;;;;;;;2.98;53.33;100779.78;147916;1147;104544;-81
2021/03/09 10:10:23;;;;;;;10.23;4.30;;;;;;;3.01;53.41;100776.97;147891;1147;104583;-78
2021/03/09 10:13:27;;;;;;;8.00;3.37;;;;;;;3.01;53.21;100779.61;147788;1146;104547;-77
2021/03/09 10:16:41;;;;;;;12.20;4.80;;;;;;;2.98;52.17;100779.78;147905;1147;104841;-75
2021/03/09 10:19:44;;;;;;;7.30;3.72;;;;;;;3.00;53.45;100777.89;147853;1147;104566;-77
2021/03/09 10:22:51;;;;;;;10.10;4.58;;;;;;;3.07;53.67;100779.23;148318;1146;104566;-79
2021/03/09 10:26:00;;;;;;;33.87;10.93;;;;;;;3.19;52.70;100777.64;148268;1146;104537;-78
2021/03/09 10:29:12;;;;;;;10.20;4.47;;;;;;;3.33;52.39;100771.55;148485;1146;104476;-78
2021/03/09 10:32:17;;;;;;;5.90;2.87;;;;;;;3.50;51.37;100765.21;148030;1146;104603;-78
2021/03/09 10:35:21;;;;;;;6.40;3.07;;;;;;;3.66;51.11;100765.13;147862;1146;104480;-78
2021/03/09 10:38:24;;;;;;;6.10;3.10;;;;;;;3.71;50.86;100769.17;147946;1147;104535;-78
2021/03/09 10:41:28;;;;;;;13.88;7.05;;;;;;;3.82;52.34;100757.92;147683;1147;104857;-77
2021/03/09 10:44:34;;;;;;;7.50;4.12;;;;;;;4.00;51.75;100773.53;147806;1148;104925;-79
2021/03/09 10:47:37;;;;;;;10.40;5.03;;;;;;;4.15;51.28;100761.14;147738;1148;104470;-76
2021/03/09 10:50:42;;;;;;;6.72;3.58;;;;;;;4.38;51.41;100755.20;147760;1147;104553;-74
2021/03/09 10:53:46;;;;;;;12.58;9.25;;;;;;;4.48;50.34;100758.95;147821;1147;104468;-75
2021/03/09 10:56:49;;;;;;;15.60;9.18;;;;;;;4.54;51.45;100762.95;147777;1146;104550;-75
2021/03/09 10:59:53;;;;;;;9.47;4.80;;;;;;;4.47;49.55;100756.41;147778;1147;104467;-75
2021/03/09 11:02:56;;;;;;;17.85;8.90;;;;;;;4.17;49.03;100746.88;147792;1147;104490;-75
2021/03/09 11:05:59;;;;;;;7.20;3.77;;;;;;;3.81;47.70;100753.60;147775;1147;104467;-72
2021/03/09 11:09:03;;;;;;;6.22;3.30;;;;;;;3.52;49.87;100750.13;147902;1147;105093;-74
2021/03/09 11:12:08;;;;;;;10.48;5.75;;;;;;;3.46;51.57;100745.24;147709;1147;104510;-75
2021/03/09 11:15:14;;;;;;;11.10;5.28;;;;;;;3.53;50.97;100743.92;147796;1147;104546;-74
2021/03/09 11:18:17;;;;;;;6.70;2.80;;;;;;;3.49;49.77;100748.55;147847;1147;104468;-74
2021/03/09 11:21:20;;;;;;;15.10;7.53;;;;;;;3.44;51.27;100745.33;147695;1148;104538;-74
2021/03/09 11:24:24;;;;;;;9.80;5.10;;;;;;;3.57;50.33;100740.15;147788;1147;104482;-74
2021/03/09 11:27:27;;;;;;;7.50;4.97;;;;;;;3.67;51.00;100738.61;147729;1147;104547;-74
2021/03/09 11:30:30;;;;;;;12.82;8.28;;;;;;;3.78;51.18;100742.39;147776;1147;104473;-74
2021/03/09 11:33:34;;;;;;;19.73;4.03;;;;;;;3.78;50.39;100735.31;147686;1147;104544;-72
2021/03/09 11:36:37;;;;;;;8.45;3.50;;;;;;;3.72;49.63;100738.34;148129;1147;104605;-75
2021/03/09 11:39:40;;;;;;;6.10;3.27;;;;;;;3.76;49.91;100736.36;148068;1146;104878;-75
2021/03/09 11:42:44;;;;;;;8.70;4.25;;;;;;;3.67;48.72;100730.70;147819;1147;104552;-75
2021/03/09 11:45:47;;;;;;;20.95;8.60;;;;;;;3.63;49.13;100729.20;147796;1147;104461;-74
2021/03/09 11:48:50;;;;;;;172.43;60.30;;;;;;;3.77;49.38;100735.41;147818;1147;104444;-73
2021/03/09 11:51:54;;;;;;;29.90;11.30;;;;;;;3.70;48.65;100733.16;147780;1147;104649;-74
2021/03/09 11:54:58;;;;;;;14.35;6.97;;;;;;;3.58;49.41;100726.03;147595;1147;104568;-75
2021/03/09 11:58:02;;;;;;;18.92;9.65;;;;;;;3.56;50.21;100727.05;147534;1146;104582;-78
2021/03/09 12:01:05;;;;;;;11.40;4.60;;;;;;;3.60;48.75;100724.14;147797;1147;104536;-76
2021/03/09 12:04:09;;;;;;;9.78;5.08;;;;;;;3.67;49.95;100724.58;147827;1146;104448;-75
2021/03/09 12:07:12;;;;;;;9.90;4.42;;;;;;;3.75;50.10;100727.57;147861;1148;104564;-75
2021/03/09 12:10:15;;;;;;;9.43;4.55;;;;;;;3.87;49.97;100713.61;147794;1147;104523;-76
2021/03/09 12:13:19;;;;;;;8.45;4.40;;;;;;;3.87;49.56;100710.97;147723;1147;104473;-73
2021/03/09 12:16:22;;;;;;;7.25;4.05;;;;;;;3.90;49.15;100699.36;147743;1147;104450;-77
2021/03/09 12:19:25;;;;;;;8.33;4.35;;;;;;;3.90;49.47;100700.19;147840;1147;104462;-79
2021/03/09 12:22:28;;;;;;;9.33;4.40;;;;;;;3.88;49.09;100699.45;147721;1148;104633;-75
2021/03/09 12:25:32;;;;;;;9.08;4.12;;;;;;;3.88;48.92;100696.81;147664;1147;104542;-74
2021/03/09 12:28:35;;;;;;;10.43;6.40;;;;;;;3.94;49.47;100695.56;147758;1147;104550;-73
2021/03/09 12:31:39;;;;;;;15.72;5.22;;;;;;;3.92;48.55;100693.02;147761;1146;104501;-76
2021/03/09 12:34:42;;;;;;;7.55;4.00;;;;;;;3.76;48.60;100686.21;147605;1147;104986;-82
2021/03/09 12:37:45;;;;;;;24.35;10.40;;;;;;;3.64;48.90;100685.21;147823;1146;104544;-74
2021/03/09 12:40:49;;;;;;;16.10;6.67;;;;;;;3.64;49.56;100683.41;148592;1146;104551;-75
2021/03/09 12:43:52;;;;;;;356.17;125.53;;;;;;;3.62;49.17;100679.16;148082;1147;104482;-73
2021/03/09 12:46:55;;;;;;;59.33;20.70;;;;;;;3.70;48.85;100675.09;147931;1146;104455;-75
2021/03/09 12:49:59;;;;;;;27.32;10.82;;;;;;;3.78;49.38;100673.77;147910;1147;104592;-73
2021/03/09 12:53:02;;;;;;;47.08;18.00;;;;;;;3.88;49.63;100670.41;147795;1148;104570;-75
2021/03/09 12:56:10;;;;;;;57.38;20.10;;;;;;;3.91;49.28;100675.50;148167;1147;104577;-76
2021/03/09 12:59:13;;;;;;;24.55;9.45;;;;;;;3.91;48.96;100680.78;148133;1146;104927;-74
2021/03/09 13:02:16;;;;;;;125.25;47.78;;;;;;;3.96;48.11;100679.62;147831;1146;104380;-75
2021/03/09 13:05:20;;;;;;;502.73;180.10;;;;;;;3.97;47.99;100670.77;147843;1147;104665;-72
2021/03/09 13:08:24;;;;;;;222.00;66.05;;;;;;;3.97;49.16;100670.77;147686;1147;104596;-72
2021/03/09 13:11:29;;;;;;;106.47;33.25;;;;;;;3.99;48.06;100661.80;147454;1146;104538;-76
2021/03/09 13:14:33;;;;;;;214.55;73.07;;;;;;;4.02;48.51;100663.38;147373;1147;104476;-75
2021/03/09 13:17:36;;;;;;;76.67;23.93;;;;;;;4.05;48.55;100665.83;147407;1145;104450;-75
2021/03/09 13:20:40;;;;;;;414.67;194.07;;;;;;;4.01;48.92;100659.06;147759;1147;104477;-74
2021/03/09 13:23:45;;;;;;;114.42;44.88;;;;;;;4.06;48.01;100656.94;147635;1147;104460;-74
2021/03/09 13:26:48;;;;;;;101.33;40.05;;;;;;;4.16;48.94;100659.82;147993;1147;104950;-76
2021/03/09 13:29:51;;;;;;;58.45;25.52;;;;;;;4.23;47.21;100645.27;147683;1147;104505;-75
2021/03/09 13:32:55;;;;;;;318.70;170.23;;;;;;;4.12;47.83;100652.12;147701;1147;104522;-80
2021/03/09 13:35:59;;;;;;;139.10;70.03;;;;;;;4.22;48.38;100652.35;147792;1146;104531;-76
2021/03/09 13:39:03;;;;;;;135.07;73.70;;;;;;;4.38;48.79;100646.04;147586;1148;104625;-74
2021/03/09 13:42:07;;;;;;;30.83;16.10;;;;;;;4.51;47.71;100652.19;147682;1147;104888;-74
2021/03/09 13:49:22;;;;;;;95.92;56.48;;;;;;;4.57;47.09;100641.19;147570;1147;105815;-75
2021/03/09 13:52:26;;;;;;;50.60;31.93;;;;;;;4.64;47.13;100645.11;147775;1147;104563;-75
2021/03/09 13:55:29;;;;;;;18.30;10.43;;;;;;;4.61;47.49;100642.67;147703;1146;104900;-75
2021/03/09 13:58:32;;;;;;;10.73;4.87;;;;;;;4.58;47.74;100637.61;147713;1147;104450;-76